Aviation Digital Data Service (ADDS)

Output produced by METARs form (2359 UTC 25 June 2019)
found at http://aviationweather.gov/metar/data/
 
KUTS 252353Z AUTO 16005KT 10SM CLR 27/20 A3004 RMK AO2 SLP168 T02720200 10322 20272 53006
KUTS 252320Z 2600/2624 17009KT P6SM FEW050 SCT100 
     TEMPO 2600/2602 -RA 
     FM260200 16005KT P6SM FEW030 SCT150 
     FM261500 15008KT P6SM VCSH SCT035 
     FM261900 15007KT P6SM VCTS SCT040CB